Time;durP1;ratioP1;P1;durP2;ratioP2;P2;SDS_P1;SDS_P2;PMS_P1;PMS_P2;Temp;Humidity;BMP_temperature;BMP_pressure;BME280_temperature;BME280_humidity;BME280_pressure;Samples;Min_cycle;Max_cycle;Signal;HPM_P1;HPM_P2
2023/04/26 00:01:05;;;;;;;2.57;0.90;;;16.60;99.90;;;;;;4970479;28;20215;-88
2023/04/26 00:03:36;;;;;;;1.97;0.57;;;16.60;99.90;;;;;;4960814;28;20207;-89
2023/04/26 00:06:11;;;;;;;1.17;0.70;;;16.60;99.90;;;;;;4973890;28;20224;-89
2023/04/26 00:08:43;;;;;;;0.93;0.60;;;16.50;99.90;;;;;;4987919;28;20210;-89
2023/04/26 00:11:15;;;;;;;1.60;0.70;;;16.50;99.90;;;;;;4975625;28;20210;-89
2023/04/26 00:13:46;;;;;;;0.73;0.50;;;16.70;99.90;;;;;;4975842;28;20261;-89
2023/04/26 00:16:18;;;;;;;0.60;0.60;;;16.90;99.90;;;;;;4966951;28;20234;-90
2023/04/26 00:18:50;;;;;;;1.33;0.50;;;16.90;99.90;;;;;;4978330;28;20215;-88
2023/04/26 00:21:25;;;;;;;0.90;0.60;;;16.90;99.90;;;;;;4975801;28;20243;-88
2023/04/26 00:23:57;;;;;;;1.80;0.60;;;17.00;99.90;;;;;;4955983;28;20216;-88
2023/04/26 00:26:28;;;;;;;2.43;0.70;;;17.10;99.90;;;;;;4974736;28;20658;-90
2023/04/26 00:29:00;;;;;;;1.30;0.70;;;17.10;99.90;;;;;;4968282;28;20265;-90
2023/04/26 00:31:31;;;;;;;2.27;0.80;;;17.00;99.90;;;;;;4974730;28;20211;-90
2023/04/26 00:34:03;;;;;;;1.63;0.70;;;17.00;99.90;;;;;;4974212;28;20222;-90
2023/04/26 00:36:36;;;;;;;0.53;0.53;;;17.10;99.90;;;;;;4976097;28;20234;-90
2023/04/26 00:39:09;;;;;;;1.60;0.57;;;17.00;99.90;;;;;;4962172;28;20214;-90
2023/04/26 00:41:40;;;;;;;0.93;0.63;;;17.00;99.90;;;;;;4973163;28;20214;-90
2023/04/26 00:44:11;;;;;;;1.97;0.73;;;16.90;99.90;;;;;;4975577;28;20215;-90
2023/04/26 00:46:44;;;;;;;1.63;0.70;;;16.90;99.90;;;;;;4974899;28;20211;-90
2023/04/26 00:49:18;;;;;;;2.33;0.80;;;17.00;99.90;;;;;;4988347;28;20225;-90
2023/04/26 00:51:54;;;;;;;0.70;0.60;;;16.90;99.90;;;;;;4994657;28;20676;-91
2023/04/26 00:54:27;;;;;;;1.43;0.70;;;16.80;99.90;;;;;;4994856;28;20264;-91
2023/04/26 00:56:58;;;;;;;1.60;0.70;;;17.10;99.90;;;;;;4976749;28;20215;-90
2023/04/26 00:59:29;;;;;;;0.63;0.63;;;17.40;99.90;;;;;;4976376;28;20218;-89
2023/04/26 01:02:01;;;;;;;2.10;0.77;;;17.80;99.90;;;;;;4994672;28;20195;-89
2023/04/26 01:04:33;;;;;;;1.83;0.73;;;18.10;99.90;;;;;;4989938;28;20211;-89
2023/04/26 01:07:07;;;;;;;1.43;0.80;;;18.20;99.90;;;;;;4974481;28;20211;-90
2023/04/26 01:09:38;;;;;;;2.60;0.60;;;18.40;99.90;;;;;;4973476;28;20252;-88
2023/04/26 01:12:11;;;;;;;2.27;0.60;;;18.20;99.90;;;;;;4973438;28;20207;-89
2023/04/26 01:14:42;;;;;;;1.57;0.50;;;18.30;99.90;;;;;;4967531;28;20211;-88
2023/04/26 01:17:14;;;;;;;0.83;0.63;;;17.80;99.90;;;;;;4963020;28;20211;-88
2023/04/26 01:19:52;;;;;;;2.93;0.67;;;17.10;99.90;;;;;;4974439;28;20665;-89
2023/04/26 01:22:25;;;;;;;1.10;0.50;;;16.80;99.90;;;;;;4974799;28;20260;-89
2023/04/26 01:25:00;;;;;;;1.17;0.60;;;17.00;99.90;;;;;;4975286;28;20246;-88
2023/04/26 01:27:32;;;;;;;2.40;0.50;;;17.30;99.90;;;;;;4975818;28;20235;-91
2023/04/26 01:30:02;;;;;;;0.90;0.47;;;17.70;99.90;;;;;;4987832;28;20226;-90
2023/04/26 01:32:34;;;;;;;1.27;0.60;;;18.00;99.90;;;;;;4994109;28;20199;-90
2023/04/26 01:35:06;;;;;;;2.00;0.80;;;18.20;99.90;;;;;;4988477;28;20247;-90
2023/04/26 01:37:38;;;;;;;2.27;0.77;;;18.30;99.90;;;;;;4974588;28;20729;-91
2023/04/26 01:40:15;;;;;;;2.30;0.67;;;18.30;99.90;;;;;;4973747;28;20261;-90
2023/04/26 01:42:46;;;;;;;0.93;0.70;;;18.20;99.90;;;;;;4977342;28;20234;-91
2023/04/26 01:45:18;;;;;;;0.40;0.40;;;18.10;99.90;;;;;;4966496;28;20294;-90
2023/04/26 01:47:49;;;;;;;2.37;0.70;;;18.10;99.90;;;;;;4973900;28;20338;-90
2023/04/26 01:50:21;;;;;;;1.53;0.40;;;17.50;99.90;;;;;;4977510;28;20219;-89
2023/04/26 01:52:53;;;;;;;1.23;0.60;;;17.20;99.90;;;;;;4975650;28;20572;-88
2023/04/26 01:55:26;;;;;;;1.33;0.50;;;16.90;99.90;;;;;;4973583;28;20290;-90
2023/04/26 01:57:57;;;;;;;1.40;0.80;;;16.80;99.90;;;;;;4972937;28;20210;-88
2023/04/26 02:00:29;;;;;;;1.60;0.80;;;16.80;99.90;;;;;;4961805;28;20661;-89
2023/04/26 02:03:00;;;;;;;2.37;0.67;;;16.60;99.90;;;;;;4969584;28;20265;-87
2023/04/26 02:05:31;;;;;;;0.50;0.50;;;16.60;99.90;;;;;;4967545;28;20210;-87
2023/04/26 02:08:02;;;;;;;2.20;1.00;;;16.20;99.90;;;;;;4973972;28;20662;-87
2023/04/26 02:10:35;;;;;;;1.80;0.70;;;15.90;99.90;;;;;;4973742;28;20251;-88
2023/04/26 02:13:09;;;;;;;2.07;0.80;;;15.70;99.90;;;;;;4960659;28;20208;-87
2023/04/26 02:15:39;;;;;;;1.00;0.60;;;15.50;99.90;;;;;;4958080;28;20576;-88
2023/04/26 02:18:11;;;;;;;0.87;0.50;;;15.20;99.90;;;;;;4975320;28;20251;-88
2023/04/26 02:20:43;;;;;;;0.57;0.43;;;15.00;99.90;;;;;;4970726;28;20218;-90
2023/04/26 02:23:15;;;;;;;2.43;0.90;;;14.90;99.90;;;;;;4964478;28;20211;-88
2023/04/26 02:25:49;;;;;;;0.63;0.50;;;14.80;99.90;;;;;;4983242;28;20282;-88
2023/04/26 02:28:21;;;;;;;1.70;0.80;;;14.70;99.90;;;;;;4981048;28;20290;-89
2023/04/26 02:30:52;;;;;;;0.53;0.50;;;14.50;99.90;;;;;;4989879;28;20203;-89
2023/04/26 02:33:24;;;;;;;0.50;0.50;;;14.30;99.90;;;;;;4982933;28;20202;-90
2023/04/26 02:35:55;;;;;;;0.83;0.50;;;14.30;99.90;;;;;;4982912;28;20752;-87
2023/04/26 02:38:27;;;;;;;1.10;0.50;;;14.10;99.90;;;;;;4982695;28;20202;-89
2023/04/26 02:41:04;;;;;;;0.47;0.47;;;14.00;99.90;;;;;;4983771;28;20199;-89
2023/04/26 02:43:36;;;;;;;1.70;0.37;;;14.00;99.90;;;;;;4969579;28;20203;-90
2023/04/26 02:46:09;;;;;;;1.83;0.67;;;13.80;99.90;;;;;;4980091;28;20207;-89
2023/04/26 02:48:41;;;;;;;0.80;0.50;;;13.70;99.90;;;;;;4980015;28;20218;-88
2023/04/26 02:51:13;;;;;;;0.60;0.50;;;13.60;99.90;;;;;;4980220;28;20202;-88
2023/04/26 02:53:44;;;;;;;0.93;0.40;;;13.40;99.90;;;;;;4968281;28;20262;-89
2023/04/26 02:56:18;;;;;;;1.20;0.67;;;13.40;99.90;;;;;;4977750;28;20470;-89
2023/04/26 02:58:49;;;;;;;2.83;0.97;;;13.30;99.90;;;;;;4973008;28;20286;-89
2023/04/26 03:01:22;;;;;;;1.63;0.57;;;13.10;99.90;;;;;;4985911;28;20203;-89
2023/04/26 03:03:54;;;;;;;1.93;0.70;;;13.00;99.90;;;;;;4976333;28;20211;-88
2023/04/26 03:06:25;;;;;;;0.70;0.50;;;12.80;99.90;;;;;;4975950;28;20216;-88
2023/04/26 03:08:57;;;;;;;1.57;0.60;;;12.70;99.90;;;;;;4974893;28;20239;-88
2023/04/26 03:11:29;;;;;;;1.87;0.70;;;12.60;99.90;;;;;;4977463;28;20344;-87
2023/04/26 03:14:01;;;;;;;2.10;0.70;;;12.50;99.90;;;;;;4972440;28;20759;-88
2023/04/26 03:16:33;;;;;;;0.60;0.40;;;12.40;99.90;;;;;;4974671;28;20231;-88
2023/04/26 03:19:05;;;;;;;1.53;0.67;;;12.20;99.90;;;;;;4965736;28;20291;-87
2023/04/26 03:21:37;;;;;;;3.17;0.67;;;12.10;99.90;;;;;;4977080;28;20208;-89
2023/04/26 03:24:08;;;;;;;3.20;0.97;;;12.00;99.90;;;;;;4962843;28;20204;-87
2023/04/26 03:26:42;;;;;;;1.77;0.80;;;11.90;99.90;;;;;;4975099;28;20214;-89
2023/04/26 03:29:13;;;;;;;0.73;0.50;;;11.80;99.90;;;;;;4975241;28;20221;-89
2023/04/26 03:31:46;;;;;;;2.03;0.73;;;11.70;99.90;;;;;;4969741;28;20211;-88
2023/04/26 03:34:17;;;;;;;2.23;0.60;;;11.60;99.90;;;;;;4957051;29;20247;-90
2023/04/26 03:36:48;;;;;;;1.40;0.60;;;11.60;99.90;;;;;;4971256;28;20282;-90
2023/04/26 03:39:20;;;;;;;2.13;0.50;;;11.50;99.90;;;;;;4994568;28;20198;-95
2023/04/26 03:41:53;;;;;;;1.50;0.77;;;11.40;99.90;;;;;;4992298;28;20388;-89
2023/04/26 03:44:24;;;;;;;1.10;0.67;;;11.40;99.90;;;;;;4974040;28;20217;-89
2023/04/26 03:46:57;;;;;;;2.17;0.80;;;11.20;99.90;;;;;;4976885;28;20222;-89
2023/04/26 03:49:29;;;;;;;2.23;0.90;;;11.20;99.90;;;;;;4967745;28;20212;-89
2023/04/26 03:52:00;;;;;;;1.80;0.90;;;11.20;99.90;;;;;;4963864;28;20232;-89
2023/04/26 03:54:32;;;;;;;2.43;0.97;;;11.10;99.90;;;;;;4974914;28;20601;-89
2023/04/26 03:57:05;;;;;;;1.30;0.90;;;11.10;99.90;;;;;;4975646;28;20319;-90
2023/04/26 03:59:37;;;;;;;2.87;0.90;;;11.10;99.90;;;;;;4967254;28;20218;-90
2023/04/26 04:02:08;;;;;;;1.13;0.80;;;11.00;99.90;;;;;;4990681;28;20210;-90
2023/04/26 04:04:39;;;;;;;1.30;0.70;;;11.00;99.90;;;;;;4969862;28;20247;-90
2023/04/26 04:07:12;;;;;;;1.20;0.80;;;10.90;99.90;;;;;;4957124;28;20662;-91
2023/04/26 04:09:43;;;;;;;1.10;0.80;;;10.90;99.90;;;;;;4967909;28;20207;-90
2023/04/26 04:12:15;;;;;;;1.13;0.80;;;10.80;99.90;;;;;;4974914;28;20214;-89
2023/04/26 04:14:47;;;;;;;2.87;0.93;;;10.70;99.90;;;;;;4974919;28;20257;-88
2023/04/26 04:17:18;;;;;;;0.90;0.70;;;10.70;99.90;;;;;;4974950;28;20705;-88
2023/04/26 04:19:49;;;;;;;1.00;0.67;;;10.70;99.90;;;;;;4973658;28;20214;-89
2023/04/26 04:22:21;;;;;;;0.87;0.80;;;10.70;99.90;;;;;;4974978;28;20211;-89
2023/04/26 04:24:53;;;;;;;0.80;0.80;;;10.60;99.90;;;;;;4973544;28;20211;-88
2023/04/26 04:27:25;;;;;;;2.60;0.70;;;10.60;99.90;;;;;;4957377;28;20215;-89
2023/04/26 04:29:57;;;;;;;0.90;0.80;;;10.60;99.90;;;;;;4956308;28;20271;-90
2023/04/26 04:32:28;;;;;;;2.13;0.87;;;10.50;99.90;;;;;;4974618;28;20881;-88
2023/04/26 04:34:59;;;;;;;2.60;1.00;;;10.50;99.90;;;;;;4974750;28;20633;-88
2023/04/26 04:37:32;;;;;;;2.40;0.90;;;10.50;99.90;;;;;;4974267;28;20231;-89
2023/04/26 04:40:04;;;;;;;2.63;0.80;;;10.50;99.90;;;;;;4974874;28;20305;-88
2023/04/26 04:42:37;;;;;;;1.37;0.90;;;10.50;99.90;;;;;;4974157;28;20277;-90
2023/04/26 04:45:10;;;;;;;1.67;0.50;;;10.40;99.90;;;;;;4974831;28;20211;-89
2023/04/26 04:47:41;;;;;;;0.97;0.67;;;10.40;99.90;;;;;;4974286;28;20227;-90
2023/04/26 04:50:14;;;;;;;2.30;0.70;;;10.40;99.90;;;;;;4972587;28;20626;-89
2023/04/26 04:52:45;;;;;;;1.43;0.77;;;10.30;99.90;;;;;;4955575;28;20251;-89
2023/04/26 04:55:16;;;;;;;1.00;0.90;;;10.30;99.90;;;;;;4955643;28;20546;-88
2023/04/26 04:57:50;;;;;;;2.33;0.80;;;10.30;99.90;;;;;;4953804;28;20345;-89
2023/04/26 05:00:23;;;;;;;1.63;0.90;;;10.20;99.90;;;;;;4957446;28;20235;-90
2023/04/26 05:02:55;;;;;;;2.00;0.83;;;10.20;99.90;;;;;;4958417;28;20297;-91
2023/04/26 05:05:28;;;;;;;1.00;0.67;;;10.20;99.90;;;;;;4972668;28;20583;-89
2023/04/26 05:07:59;;;;;;;1.67;0.70;;;10.20;99.90;;;;;;4972121;28;20199;-89
2023/04/26 05:10:30;;;;;;;2.10;0.80;;;10.20;99.90;;;;;;4962903;28;20615;-89
2023/04/26 05:13:04;;;;;;;2.33;0.80;;;10.10;99.90;;;;;;4967925;28;20211;-89
2023/04/26 05:15:36;;;;;;;1.10;0.83;;;10.10;99.90;;;;;;4973121;28;20214;-89
2023/04/26 05:18:07;;;;;;;2.40;0.90;;;10.00;99.90;;;;;;4972280;28;20289;-89
2023/04/26 05:20:38;;;;;;;1.60;0.80;;;10.00;99.90;;;;;;4977135;28;20237;-88
2023/04/26 05:23:09;;;;;;;2.73;0.90;;;10.00;99.90;;;;;;4977295;28;20207;-88
2023/04/26 05:25:40;;;;;;;2.00;0.70;;;10.00;99.90;;;;;;4975331;28;20708;-88
2023/04/26 05:28:13;;;;;;;1.27;0.70;;;9.90;99.90;;;;;;4976019;28;20203;-88
2023/04/26 05:30:45;;;;;;;1.97;1.20;;;9.90;99.90;;;;;;4976685;28;20265;-88
2023/04/26 05:33:16;;;;;;;1.90;0.97;;;9.80;99.90;;;;;;4975863;28;20218;-88
2023/04/26 05:35:47;;;;;;;0.80;0.70;;;9.80;99.90;;;;;;4976341;28;20231;-88
2023/04/26 05:38:18;;;;;;;0.80;0.80;;;9.70;99.90;;;;;;4976737;28;20245;-88
2023/04/26 05:40:50;;;;;;;4.33;0.80;;;9.70;99.90;;;;;;4977359;28;20211;-88
2023/04/26 05:43:24;;;;;;;2.57;0.77;;;9.70;99.90;;;;;;4985274;28;20206;-89
2023/04/26 05:45:56;;;;;;;0.80;0.70;;;9.60;99.90;;;;;;4990406;28;20590;-89
2023/04/26 05:48:28;;;;;;;1.33;0.70;;;9.60;99.90;;;;;;4991219;28;20251;-89
2023/04/26 05:51:00;;;;;;;2.43;1.10;;;9.50;99.90;;;;;;4975496;28;20211;-88
2023/04/26 05:53:32;;;;;;;0.80;0.80;;;9.50;99.90;;;;;;4974419;28;20671;-88
2023/04/26 05:56:03;;;;;;;1.07;0.80;;;9.40;99.90;;;;;;4980889;28;20219;-89
2023/04/26 05:58:36;;;;;;;0.97;0.80;;;9.40;99.90;;;;;;4976122;28;20697;-90
2023/04/26 06:01:07;;;;;;;2.20;0.80;;;9.40;99.90;;;;;;4974575;28;20636;-89
2023/04/26 06:03:38;;;;;;;2.10;1.10;;;9.40;99.90;;;;;;4977338;28;20231;-89
2023/04/26 06:06:11;;;;;;;1.23;0.87;;;9.30;99.90;;;;;;4964969;28;20238;-90
2023/04/26 06:08:44;;;;;;;3.90;0.83;;;9.30;99.90;;;;;;4985674;28;20208;-89
2023/04/26 06:11:15;;;;;;;1.27;0.90;;;9.30;99.90;;;;;;5002718;28;20218;-90
2023/04/26 06:13:48;;;;;;;2.00;1.00;;;9.30;99.90;;;;;;4975258;28;20214;-89
2023/04/26 06:16:20;;;;;;;1.07;0.97;;;9.30;99.90;;;;;;4976039;28;20903;-89
2023/04/26 06:18:51;;;;;;;1.20;0.83;;;9.20;99.90;;;;;;4974155;28;20862;-89
2023/04/26 06:21:22;;;;;;;1.43;0.90;;;9.20;99.90;;;;;;4975532;28;20641;-89
2023/04/26 06:23:53;;;;;;;1.17;1.07;;;9.10;99.90;;;;;;4976006;28;20271;-90
2023/04/26 06:26:24;;;;;;;2.73;1.00;;;9.10;99.90;;;;;;4976125;28;20590;-91
2023/04/26 06:28:57;;;;;;;1.73;0.80;;;9.00;99.90;;;;;;4960557;28;20215;-89
2023/04/26 06:31:28;;;;;;;0.90;0.80;;;9.00;99.90;;;;;;4956035;28;20220;-89
2023/04/26 06:34:00;;;;;;;2.77;0.67;;;9.00;99.90;;;;;;4956029;28;20214;-88
2023/04/26 06:36:31;;;;;;;1.03;0.63;;;9.00;99.90;;;;;;4960395;28;20203;-88
2023/04/26 06:39:03;;;;;;;1.27;0.93;;;8.90;99.90;;;;;;4970579;28;20293;-89
2023/04/26 06:41:34;;;;;;;0.93;0.63;;;8.90;99.90;;;;;;4972943;28;20215;-88
2023/04/26 06:44:07;;;;;;;0.70;0.60;;;8.80;99.90;;;;;;4962068;28;20865;-89
2023/04/26 06:46:39;;;;;;;1.20;1.07;;;8.80;99.90;;;;;;4969084;28;20635;-88
2023/04/26 06:49:12;;;;;;;0.70;0.70;;;8.80;99.90;;;;;;4974022;28;20206;-89
2023/04/26 06:51:43;;;;;;;1.33;1.03;;;8.70;99.90;;;;;;4977010;28;20249;-90
2023/04/26 06:54:15;;;;;;;0.83;0.83;;;8.70;99.90;;;;;;4976560;28;20218;-90
2023/04/26 06:56:46;;;;;;;1.23;0.90;;;8.70;99.90;;;;;;4977491;28;20218;-90
2023/04/26 06:59:20;;;;;;;1.13;0.70;;;8.60;99.90;;;;;;4975694;28;20237;-91
2023/04/26 07:01:53;;;;;;;0.97;0.90;;;8.50;99.90;;;;;;4976105;28;20199;-89
2023/04/26 07:04:25;;;;;;;2.10;1.00;;;8.50;99.90;;;;;;4967078;28;20199;-90
2023/04/26 07:06:57;;;;;;;1.63;0.87;;;8.50;99.90;;;;;;4965688;28;20215;-88
2023/04/26 07:09:28;;;;;;;0.90;0.70;;;8.50;99.90;;;;;;4962899;28;20195;-89
2023/04/26 07:11:59;;;;;;;1.53;1.00;;;8.50;99.90;;;;;;4975064;28;20619;-89
2023/04/26 07:14:32;;;;;;;1.03;0.80;;;8.60;99.90;;;;;;4976247;28;20219;-89
2023/04/26 07:17:06;;;;;;;1.57;1.07;;;8.60;99.90;;;;;;4972494;28;20229;-89
2023/04/26 07:19:37;;;;;;;0.90;0.70;;;8.60;99.90;;;;;;4967035;28;20227;-89
2023/04/26 07:22:09;;;;;;;1.17;0.90;;;8.50;99.90;;;;;;4979540;28;20270;-89
2023/04/26 07:24:41;;;;;;;4.33;1.23;;;8.50;99.90;;;;;;4984483;28;20210;-90
2023/04/26 07:27:13;;;;;;;2.13;1.00;;;8.50;99.90;;;;;;4981664;28;20215;-88
2023/04/26 07:29:46;;;;;;;1.30;0.90;;;8.40;99.90;;;;;;4970301;28;20281;-88
2023/04/26 07:32:18;;;;;;;1.47;0.80;;;8.40;99.90;;;;;;4979197;28;20319;-88
2023/04/26 07:34:50;;;;;;;1.03;0.73;;;8.40;99.90;;;;;;4957443;28;20588;-87
2023/04/26 07:37:21;;;;;;;1.67;1.07;;;8.40;99.90;;;;;;4957515;28;20267;-89
2023/04/26 07:39:53;;;;;;;2.73;1.10;;;8.40;99.90;;;;;;4960710;28;20234;-89
2023/04/26 07:42:25;;;;;;;1.53;0.93;;;8.30;99.90;;;;;;4976941;28;20673;-88
2023/04/26 07:44:58;;;;;;;1.67;1.00;;;8.30;99.90;;;;;;4977300;28;20306;-90
2023/04/26 07:47:30;;;;;;;2.80;1.00;;;8.30;99.90;;;;;;4970347;28;20565;-90
2023/04/26 07:50:02;;;;;;;0.80;0.80;;;8.30;99.90;;;;;;4964377;29;20207;-88
2023/04/26 07:52:33;;;;;;;2.10;0.80;;;8.20;99.90;;;;;;4967933;28;20685;-87
2023/04/26 07:55:05;;;;;;;0.93;0.80;;;8.20;99.90;;;;;;4964091;28;20208;-89
2023/04/26 07:57:37;;;;;;;2.40;0.97;;;8.20;99.90;;;;;;4971679;28;20207;-89
2023/04/26 08:00:13;;;;;;;0.83;0.83;;;8.20;99.90;;;;;;4976424;28;20710;-89
2023/04/26 08:02:46;;;;;;;1.27;0.80;;;8.20;99.90;;;;;;4993838;28;20880;-89
2023/04/26 08:05:18;;;;;;;1.80;0.80;;;8.20;99.90;;;;;;4976251;28;20692;-90
2023/04/26 08:07:50;;;;;;;0.70;0.63;;;8.20;99.90;;;;;;4974056;28;20671;-90
2023/04/26 08:10:21;;;;;;;1.17;0.90;;;8.20;99.90;;;;;;4976938;28;20227;-88
2023/04/26 08:12:52;;;;;;;3.27;1.00;;;8.20;99.90;;;;;;4982907;28;20207;-90
2023/04/26 08:15:26;;;;;;;1.93;0.83;;;8.10;99.90;;;;;;4980084;28;20215;-87
2023/04/26 08:17:57;;;;;;;0.73;0.53;;;8.10;99.90;;;;;;4977515;28;20294;-89
2023/04/26 08:20:28;;;;;;;1.07;0.60;;;8.10;99.90;;;;;;4983842;28;20316;-90
2023/04/26 08:23:00;;;;;;;0.97;0.70;;;8.10;99.90;;;;;;4975118;28;20247;-89
2023/04/26 08:25:33;;;;;;;1.67;0.70;;;8.10;99.90;;;;;;4977234;28;20696;-89
2023/04/26 08:28:06;;;;;;;1.00;0.90;;;8.10;99.90;;;;;;4976528;28;20218;-90
2023/04/26 08:30:40;;;;;;;1.60;0.90;;;8.10;99.90;;;;;;4977067;28;20351;-90
2023/04/26 08:33:11;;;;;;;2.43;0.87;;;8.10;99.90;;;;;;4974533;28;20575;-89
2023/04/26 08:35:42;;;;;;;2.03;0.87;;;8.10;99.90;;;;;;4976424;28;20223;-88
2023/04/26 08:38:14;;;;;;;1.57;0.90;;;8.10;99.90;;;;;;4978756;28;20251;-87
2023/04/26 08:40:47;;;;;;;4.30;1.10;;;8.10;99.90;;;;;;4975344;28;20235;-88
2023/04/26 08:43:19;;;;;;;2.33;1.10;;;8.10;99.90;;;;;;4962048;28;20208;-89
2023/04/26 08:45:52;;;;;;;1.10;1.00;;;8.10;99.90;;;;;;4958900;28;20278;-88
2023/04/26 08:48:25;;;;;;;2.70;1.00;;;8.10;99.90;;;;;;4974867;28;20294;-87
2023/04/26 08:50:57;;;;;;;2.83;0.90;;;8.10;99.90;;;;;;4969183;28;20210;-88
2023/04/26 08:53:29;;;;;;;2.20;1.07;;;8.10;99.90;;;;;;4973312;28;20302;-89
2023/04/26 08:56:01;;;;;;;1.47;1.10;;;8.20;99.90;;;;;;4973213;28;20206;-88
2023/04/26 08:58:33;;;;;;;1.27;0.90;;;8.20;99.90;;;;;;4972482;28;20616;-88
2023/04/26 09:01:08;;;;;;;1.27;1.10;;;8.10;99.90;;;;;;4972747;28;20242;-89
2023/04/26 09:03:39;;;;;;;2.40;1.17;;;8.00;99.90;;;;;;4974173;28;20689;-89
2023/04/26 09:06:11;;;;;;;2.30;1.27;;;8.00;99.90;;;;;;4972909;28;20207;-89
2023/04/26 09:08:43;;;;;;;3.03;0.90;;;8.00;99.90;;;;;;4971095;28;20250;-89
2023/04/26 09:11:15;;;;;;;2.23;1.10;;;7.90;99.90;;;;;;4962362;28;20835;-89
2023/04/26 09:13:46;;;;;;;1.53;0.83;;;7.90;99.90;;;;;;4953707;28;20295;-90
2023/04/26 09:16:20;;;;;;;2.40;1.20;;;7.90;99.90;;;;;;4961242;28;20589;-89
2023/04/26 09:18:56;;;;;;;1.40;0.90;;;7.90;99.90;;;;;;4972285;28;20618;-89
2023/04/26 09:21:28;;;;;;;2.37;1.00;;;7.90;99.90;;;;;;4972412;28;20206;-89
2023/04/26 09:24:03;;;;;;;1.20;1.00;;;7.90;99.90;;;;;;4972916;28;20207;-89
2023/04/26 09:26:34;;;;;;;2.30;1.13;;;7.90;99.90;;;;;;4954185;28;20210;-89
2023/04/26 09:29:16;;;;;;;2.47;0.90;;;7.90;99.90;;;;;;4955120;28;20312;-90
2023/04/26 09:31:49;;;;;;;1.37;1.10;;;7.90;99.90;;;;;;4956895;28;20278;-88
2023/04/26 09:34:21;;;;;;;1.57;0.93;;;7.90;99.90;;;;;;4965735;28;20208;-89
2023/04/26 09:36:55;;;;;;;1.17;0.80;;;7.90;99.90;;;;;;4973152;28;20207;-88
2023/04/26 09:39:34;;;;;;;0.87;0.80;;;7.90;99.90;;;;;;4971929;28;20297;-89
2023/04/26 09:42:06;;;;;;;1.47;1.00;;;7.90;99.90;;;;;;4971718;28;20210;-90
2023/04/26 09:44:38;;;;;;;3.53;0.83;;;7.80;99.90;;;;;;4965056;28;20724;-89
2023/04/26 09:47:12;;;;;;;1.37;0.87;;;7.80;99.90;;;;;;4972813;28;20211;-89
2023/04/26 09:49:49;;;;;;;1.87;0.90;;;7.70;99.90;;;;;;4971924;28;20207;-89
2023/04/26 09:52:21;;;;;;;2.30;1.10;;;7.70;99.90;;;;;;4973417;28;20211;-88
2023/04/26 09:54:54;;;;;;;2.43;1.00;;;7.70;99.90;;;;;;4972893;28;20683;-88
2023/04/26 09:57:25;;;;;;;1.63;1.10;;;7.60;99.90;;;;;;4977001;28;20218;-89
2023/04/26 09:59:56;;;;;;;1.03;0.73;;;7.50;99.90;;;;;;4972460;28;20232;-89
2023/04/26 10:02:30;;;;;;;1.47;1.00;;;7.60;99.90;;;;;;4982005;28;20211;-90
2023/04/26 10:05:03;;;;;;;1.30;1.17;;;7.50;99.90;;;;;;4976069;28;20222;-88
2023/04/26 10:07:35;;;;;;;1.40;1.00;;;7.50;99.90;;;;;;4963218;28;20210;-91
2023/04/26 10:10:09;;;;;;;0.93;0.83;;;7.40;99.90;;;;;;4977538;28;20271;-90
2023/04/26 10:12:41;;;;;;;2.17;0.80;;;7.30;99.90;;;;;;4976696;28;20285;-89
2023/04/26 10:15:13;;;;;;;1.00;0.80;;;7.30;99.90;;;;;;4976170;28;20211;-89
2023/04/26 10:17:47;;;;;;;1.00;0.90;;;7.30;99.90;;;;;;4970049;28;20543;-89
2023/04/26 10:20:22;;;;;;;1.10;1.00;;;7.20;99.90;;;;;;4975519;28;20238;-89
2023/04/26 10:23:00;;;;;;;6.27;1.17;;;7.20;99.90;;;;;;4973846;28;20619;-89
2023/04/26 10:25:37;;;;;;;2.40;1.30;;;7.20;99.90;;;;;;4975847;28;20261;-89
2023/04/26 10:28:09;;;;;;;1.37;1.00;;;7.20;99.90;;;;;;4974758;28;20234;-90
2023/04/26 10:30:56;;;;;;;2.13;0.90;;;7.20;99.90;;;;;;4975905;28;20215;-89
2023/04/26 10:33:29;;;;;;;3.77;1.00;;;7.20;99.90;;;;;;4974866;28;20202;-88
2023/04/26 10:36:13;;;;;;;5.10;1.07;;;7.20;99.90;;;;;;4967309;28;20295;-88
2023/04/26 10:39:00;;;;;;;1.20;1.00;;;7.20;99.90;;;;;;4971442;28;20211;-90
2023/04/26 10:41:38;;;;;;;1.90;1.03;;;7.20;99.90;;;;;;4975176;28;20242;-88
2023/04/26 10:44:38;;;;;;;1.83;0.80;;;7.20;99.90;;;;;;4964113;28;20210;-89
2023/04/26 10:47:23;;;;;;;1.33;1.00;;;7.20;99.90;;;;;;4975224;28;20290;-88
2023/04/26 10:50:08;;;;;;;1.13;0.90;;;7.20;99.90;;;;;;4974457;28;20235;-89
2023/04/26 10:52:49;;;;;;;1.60;1.10;;;7.30;99.90;;;;;;4974108;28;20226;-89
2023/04/26 10:55:41;;;;;;;0.97;0.83;;;7.30;99.90;;;;;;4975987;28;20948;-89
2023/04/26 10:58:27;;;;;;;4.70;1.30;;;7.30;99.90;;;;;;4959771;28;20223;-89
2023/04/26 11:01:10;;;;;;;1.43;1.10;;;7.40;99.90;;;;;;4957471;28;20235;-88
2023/04/26 11:03:44;;;;;;;1.00;0.90;;;7.30;99.90;;;;;;4973061;28;20225;-89
2023/04/26 11:06:18;;;;;;;1.43;0.97;;;7.30;99.90;;;;;;4977243;28;20211;-89
2023/04/26 11:08:50;;;;;;;1.60;0.83;;;7.20;99.90;;;;;;4976496;28;20218;-88
2023/04/26 11:11:28;;;;;;;2.37;1.00;;;7.20;99.90;;;;;;4977230;28;20242;-88
2023/04/26 11:14:04;;;;;;;1.50;1.00;;;7.30;99.90;;;;;;4978663;28;20265;-89
2023/04/26 11:16:35;;;;;;;1.30;0.97;;;7.20;99.90;;;;;;4983705;28;20235;-90
2023/04/26 11:19:07;;;;;;;2.40;1.00;;;7.30;99.90;;;;;;4984797;28;20273;-90
2023/04/26 11:21:41;;;;;;;2.40;1.00;;;7.30;99.90;;;;;;4975077;28;20223;-88
2023/04/26 11:24:16;;;;;;;2.00;0.90;;;7.30;99.90;;;;;;4974914;28;20211;-90
2023/04/26 11:26:54;;;;;;;1.57;1.03;;;7.20;99.90;;;;;;4975304;28;20279;-89
2023/04/26 11:29:25;;;;;;;1.87;0.90;;;7.20;99.90;;;;;;4973206;28;20230;-89
2023/04/26 11:31:57;;;;;;;3.10;0.90;;;7.10;99.90;;;;;;4961184;28;20298;-89
2023/04/26 11:34:34;;;;;;;0.80;0.80;;;7.10;99.90;;;;;;4955890;28;20204;-89
2023/04/26 11:37:08;;;;;;;1.47;1.00;;;7.10;99.90;;;;;;4959818;28;20242;-89
2023/04/26 11:39:39;;;;;;;1.60;1.00;;;7.10;99.90;;;;;;4976325;28;20199;-89
2023/04/26 11:42:12;;;;;;;2.07;0.93;;;7.00;99.90;;;;;;4975199;28;20637;-89
2023/04/26 11:44:44;;;;;;;2.07;0.97;;;7.00;99.90;;;;;;4970958;28;20224;-90
2023/04/26 11:47:17;;;;;;;1.23;1.03;;;7.00;99.90;;;;;;4972315;28;20238;-89
2023/04/26 11:49:57;;;;;;;1.66;1.00;;;7.00;99.90;;;;;;4956489;28;10000711;-88
2023/04/26 11:52:31;;;;;;;3.50;1.10;;;6.90;99.90;;;;;;4975526;28;20981;-88
2023/04/26 11:55:07;;;;;;;0.70;0.70;;;6.90;99.90;;;;;;4971827;28;20642;-90
2023/04/26 11:57:38;;;;;;;1.30;1.00;;;6.90;99.90;;;;;;4955706;28;20207;-88
2023/04/26 12:00:13;;;;;;;1.70;1.00;;;6.90;99.90;;;;;;4963909;28;20211;-89
2023/04/26 12:02:48;;;;;;;2.50;1.20;;;6.80;99.90;;;;;;4976624;28;20568;-88
2023/04/26 12:05:29;;;;;;;2.80;1.10;;;6.80;99.90;;;;;;4970155;28;20231;-89
2023/04/26 12:08:02;;;;;;;1.53;1.00;;;6.90;99.90;;;;;;4966881;28;20208;-88
2023/04/26 12:10:36;;;;;;;1.47;1.10;;;6.90;99.90;;;;;;4962904;28;20262;-89
2023/04/26 12:13:08;;;;;;;2.27;1.20;;;6.90;99.90;;;;;;4964830;28;20219;-88
2023/04/26 12:15:41;;;;;;;1.67;1.10;;;6.90;99.90;;;;;;4979219;28;20213;-89
2023/04/26 12:18:13;;;;;;;1.87;1.20;;;6.90;99.90;;;;;;4981359;28;20219;-89
2023/04/26 12:20:46;;;;;;;1.63;1.00;;;6.80;99.90;;;;;;4978122;28;20270;-88
2023/04/26 12:23:19;;;;;;;3.47;1.27;;;6.80;99.90;;;;;;4975851;28;20285;-90
2023/04/26 12:25:55;;;;;;;1.47;1.07;;;6.80;99.90;;;;;;4964514;28;20305;-90
2023/04/26 12:28:26;;;;;;;1.83;1.00;;;6.80;99.90;;;;;;4961776;28;20215;-90
2023/04/26 12:30:59;;;;;;;2.00;1.20;;;6.80;99.90;;;;;;4971477;28;20211;-89
2023/04/26 12:33:31;;;;;;;2.60;1.17;;;6.80;99.90;;;;;;4986279;28;20210;-88
2023/04/26 12:36:12;;;;;;;2.03;1.20;;;6.80;99.90;;;;;;4986495;28;20214;-89
2023/04/26 12:38:44;;;;;;;1.90;1.30;;;6.80;99.90;;;;;;4979201;28;20269;-90
2023/04/26 12:41:16;;;;;;;1.47;1.10;;;6.80;99.90;;;;;;4955903;28;20235;-90
2023/04/26 12:43:47;;;;;;;2.00;1.13;;;6.90;99.90;;;;;;4959916;28;20231;-88
2023/04/26 12:46:19;;;;;;;2.20;1.03;;;7.00;99.90;;;;;;4961112;28;20262;-90
2023/04/26 12:48:50;;;;;;;0.93;0.93;;;6.90;99.90;;;;;;4973045;28;20207;-89
2023/04/26 12:51:22;;;;;;;1.80;1.10;;;7.00;99.90;;;;;;4976657;28;20301;-89
2023/04/26 12:53:56;;;;;;;3.10;1.00;;;7.00;99.90;;;;;;4975946;28;20214;-89
2023/04/26 12:56:30;;;;;;;1.60;1.10;;;6.90;99.90;;;;;;4966195;28;20223;-88
2023/04/26 12:59:01;;;;;;;1.37;1.27;;;7.00;99.90;;;;;;4958474;29;20203;-88
2023/04/26 13:01:32;;;;;;;2.20;1.23;;;6.90;99.90;;;;;;4958170;28;20235;-88
2023/04/26 13:04:04;;;;;;;3.80;1.10;;;7.00;99.90;;;;;;4954769;29;20291;-89
2023/04/26 13:06:36;;;;;;;2.37;1.00;;;6.90;99.90;;;;;;4964651;28;20306;-87
2023/04/26 13:09:11;;;;;;;1.40;1.07;;;7.00;99.90;;;;;;4973118;28;20214;-88
2023/04/26 13:11:42;;;;;;;1.50;1.10;;;7.00;99.90;;;;;;4975558;28;20320;-88
2023/04/26 13:14:14;;;;;;;1.33;1.10;;;7.00;99.90;;;;;;4974315;28;20222;-89
2023/04/26 13:16:45;;;;;;;4.80;1.43;;;7.00;99.90;;;;;;4970527;28;20199;-88
2023/04/26 13:19:16;;;;;;;1.97;1.23;;;7.00;99.90;;;;;;4970993;28;20294;-89
2023/04/26 13:21:48;;;;;;;1.40;1.17;;;7.10;99.90;;;;;;4974362;28;20285;-89